Time,TemperatureF,DewpointF,PressureIn,WindDirection,WindDirectionDegrees,WindSpeedMPH,WindSpeedGustMPH,Humidity,HourlyPrecipIn,Conditions,Clouds,dailyrainin,SoftwareType,DateUTC
2013-04-02 00:00:00,34.6,16.5,30.26,NNW,348,3.0,9.0,47,0.00,,---,0.00,VWS V14.01,2013-04-02 05:00:00,
2013-04-02 00:03:00,36.2,15.9,30.26,NW,313,1.0,12.0,43,0.00,,---,0.00,VWS V14.01,2013-04-02 05:03:00,
2013-04-02 00:08:00,36.2,16.4,30.26,NNW,330,0.0,2.0,44,0.00,,---,0.00,VWS V14.01,2013-04-02 05:08:00,
2013-04-02 00:13:00,36.0,16.2,30.26,NNE,24,0.0,2.0,44,0.00,,---,0.00,VWS V14.01,2013-04-02 05:13:00,
2013-04-02 00:18:00,35.9,16.6,30.26,North,10,0.0,2.0,45,0.00,,---,0.00,VWS V14.01,2013-04-02 05:18:00,
2013-04-02 00:23:00,35.9,16.6,30.26,WNW,295,0.0,3.0,45,0.00,,---,0.00,VWS V14.01,2013-04-02 05:23:00,
2013-04-02 00:28:00,35.6,16.4,30.26,NNW,344,0.0,6.0,45,0.00,,---,0.00,VWS V14.01,2013-04-02 05:28:00,
2013-04-02 00:30:00,33.8,16.7,30.26,NNW,339,3.0,12.0,49,0.00,,---,0.00,VWS V14.01,2013-04-02 05:30:00,
2013-04-02 00:33:00,35.5,16.8,30.26,NNE,17,2.0,6.0,46,0.00,,---,0.00,VWS V14.01,2013-04-02 05:33:00,
2013-04-02 00:38:00,35.5,16.8,30.26,NNE,15,1.0,6.0,46,0.00,,---,0.00,VWS V14.01,2013-04-02 05:38:00,
2013-04-02 00:43:00,35.3,16.6,30.26,NNW,345,5.0,6.0,46,0.00,,---,0.00,VWS V14.01,2013-04-02 05:43:00,
2013-04-02 00:48:00,35.2,16.5,30.26,NNW,345,3.0,9.0,46,0.00,,---,0.00,VWS V14.01,2013-04-02 05:48:00,
2013-04-02 00:53:00,34.9,16.2,30.26,North,5,2.0,9.0,46,0.00,,---,0.00,VWS V14.01,2013-04-02 05:53:00,
2013-04-02 00:58:00,34.7,16.5,30.26,NNW,329,5.0,9.0,47,0.00,,---,0.00,VWS V14.01,2013-04-02 05:58:00,
2013-04-02 01:00:00,32.9,16.8,30.27,NW,322,0.0,11.0,51,0.00,,---,0.00,VWS V14.01,2013-04-02 06:00:00,
2013-04-02 01:03:00,34.6,16.5,30.26,North,355,1.0,9.0,47,0.00,,---,0.00,VWS V14.01,2013-04-02 06:03:00,
2013-04-02 01:08:00,34.4,16.8,30.26,North,5,4.0,6.0,48,0.00,,---,0.00,VWS V14.01,2013-04-02 06:08:00,
2013-04-02 01:13:00,34.3,16.7,30.26,NNE,19,0.0,6.0,48,0.00,,---,0.00,VWS V14.01,2013-04-02 06:13:00,
2013-04-02 01:18:00,34.1,17.0,30.26,North,9,6.0,9.0,49,0.00,,---,0.00,VWS V14.01,2013-04-02 06:18:00,
2013-04-02 01:23:00,34.1,17.0,30.26,NNE,17,6.0,12.0,49,0.00,,---,0.00,VWS V14.01,2013-04-02 06:23:00,
2013-04-02 01:28:00,34.1,17.0,30.26,North,355,1.0,12.0,49,0.00,,---,0.00,VWS V14.01,2013-04-02 06:28:00,
2013-04-02 01:30:00,32.7,17.0,30.27,NNE,14,4.0,9.0,52,0.00,,---,0.00,VWS V14.01,2013-04-02 06:30:00,
2013-04-02 01:33:00,33.8,16.7,30.26,NNW,341,5.0,12.0,49,0.00,,---,0.00,VWS V14.01,2013-04-02 06:33:00,
2013-04-02 01:38:00,33.7,16.6,30.26,NNW,340,6.0,9.0,49,0.00,,---,0.00,VWS V14.01,2013-04-02 06:38:00,
2013-04-02 01:43:00,33.4,16.8,30.26,North,9,4.0,11.0,50,0.00,,---,0.00,VWS V14.01,2013-04-02 06:43:00,
2013-04-02 01:48:00,33.4,16.8,30.26,NNW,346,4.0,11.0,50,0.00,,---,0.00,VWS V14.01,2013-04-02 06:48:00,
2013-04-02 01:53:00,33.2,16.6,30.26,NNW,331,4.0,11.0,50,0.00,,---,0.00,VWS V14.01,2013-04-02 06:53:00,
2013-04-02 01:58:00,33.1,17.0,30.26,North,5,2.0,11.0,51,0.00,,---,0.00,VWS V14.01,2013-04-02 06:58:00,
2013-04-02 02:00:00,32.4,17.2,30.26,NNW,338,0.0,7.0,53,0.00,,---,0.00,VWS V14.01,2013-04-02 07:00:00,
2013-04-02 02:03:00,32.9,16.8,30.26,NNE,21,2.0,11.0,51,0.00,,---,0.00,VWS V14.01,2013-04-02 07:03:00,
2013-04-02 02:08:00,32.8,16.7,30.27,North,355,3.0,3.0,51,0.00,,---,0.00,VWS V14.01,2013-04-02 07:08:00,
2013-04-02 02:13:00,32.7,17.0,30.27,NNW,336,4.0,8.0,52,0.00,,---,0.00,VWS V14.01,2013-04-02 07:13:00,
2013-04-02 02:18:00,32.5,16.9,30.27,NNW,343,6.0,9.0,52,0.00,,---,0.00,VWS V14.01,2013-04-02 07:18:00,
2013-04-02 02:23:00,32.5,16.9,30.27,North,11,0.0,9.0,52,0.00,,---,0.00,VWS V14.01,2013-04-02 07:23:00,
2013-04-02 02:28:00,32.5,17.3,30.27,NNE,33,1.0,9.0,53,0.00,,---,0.00,VWS V14.01,2013-04-02 07:28:00,
2013-04-02 02:30:00,32.1,16.9,30.26,NNE,32,5.0,6.0,53,0.00,,---,0.00,VWS V14.01,2013-04-02 07:30:00,
2013-04-02 02:33:00,32.7,17.0,30.27,North,11,0.0,9.0,52,0.00,,---,0.00,VWS V14.01,2013-04-02 07:33:00,
2013-04-02 02:38:00,32.7,17.0,30.27,North,360,1.0,5.0,52,0.00,,---,0.00,VWS V14.01,2013-04-02 07:38:00,
2013-04-02 02:43:00,32.5,17.3,30.27,NW,324,0.0,5.0,53,0.00,,---,0.00,VWS V14.01,2013-04-02 07:43:00,
2013-04-02 02:48:00,32.5,16.9,30.27,NNE,30,1.0,5.0,52,0.00,,---,0.00,VWS V14.01,2013-04-02 07:48:00,
2013-04-02 02:53:00,32.5,17.3,30.27,North,360,2.0,5.0,53,0.00,,---,0.00,VWS V14.01,2013-04-02 07:53:00,
2013-04-02 02:58:00,32.4,17.2,30.27,NNE,18,2.0,5.0,53,0.00,,---,0.00,VWS V14.01,2013-04-02 07:58:00,
2013-04-02 03:00:00,32.2,17.0,30.26,NE,35,1.0,6.0,53,0.00,,---,0.00,VWS V14.01,2013-04-02 08:00:00,
2013-04-02 03:03:00,32.4,17.2,30.27,NNE,28,3.0,7.0,53,0.00,,---,0.00,VWS V14.01,2013-04-02 08:03:00,
2013-04-02 03:08:00,32.2,17.0,30.26,NNE,13,3.0,6.0,53,0.00,,---,0.00,VWS V14.01,2013-04-02 08:08:00,
2013-04-02 03:13:00,32.2,17.0,30.26,NNE,14,1.0,6.0,53,0.00,,---,0.00,VWS V14.01,2013-04-02 08:13:00,
2013-04-02 03:18:00,32.1,16.9,30.26,NNE,16,0.0,6.0,53,0.00,,---,0.00,VWS V14.01,2013-04-02 08:18:00,
2013-04-02 03:23:00,32.1,17.3,30.26,North,360,0.0,6.0,54,0.00,,---,0.00,VWS V14.01,2013-04-02 08:23:00,
2013-04-02 03:28:00,32.2,17.0,30.26,NNW,344,0.0,6.0,53,0.00,,---,0.00,VWS V14.01,2013-04-02 08:28:00,
2013-04-02 03:30:00,31.8,17.1,30.27,NE,40,0.0,5.0,54,0.00,,---,0.00,VWS V14.01,2013-04-02 08:30:00,
2013-04-02 03:33:00,32.1,16.9,30.26,NNE,17,0.0,6.0,53,0.00,,---,0.00,VWS V14.01,2013-04-02 08:33:00,
2013-04-02 03:38:00,32.1,16.9,30.26,North,9,0.0,6.0,53,0.00,,---,0.00,VWS V14.01,2013-04-02 08:38:00,
2013-04-02 03:43:00,32.1,16.9,30.26,NNW,344,5.0,6.0,53,0.00,,---,0.00,VWS V14.01,2013-04-02 08:43:00,
2013-04-02 03:48:00,32.2,17.4,30.26,ENE,58,0.0,6.0,54,0.00,,---,0.00,VWS V14.01,2013-04-02 08:48:00,
2013-04-02 03:53:00,32.2,17.0,30.26,NNE,29,4.0,6.0,53,0.00,,---,0.00,VWS V14.01,2013-04-02 08:53:00,
2013-04-02 03:58:00,32.2,17.0,30.26,North,5,0.0,6.0,53,0.00,,---,0.00,VWS V14.01,2013-04-02 08:58:00,
2013-04-02 04:00:00,31.3,17.0,30.27,NE,40,0.0,2.0,55,0.00,,---,0.00,VWS V14.01,2013-04-02 09:00:00,
2013-04-02 04:03:00,32.2,17.0,30.26,NNW,341,0.0,6.0,53,0.00,,---,0.00,VWS V14.01,2013-04-02 09:03:00,
2013-04-02 04:08:00,32.1,16.9,30.26,North,360,0.0,5.0,53,0.00,,---,0.00,VWS V14.01,2013-04-02 09:08:00,
2013-04-02 04:13:00,31.9,16.7,30.26,NNE,15,0.0,5.0,53,0.00,,---,0.00,VWS V14.01,2013-04-02 09:13:00,
2013-04-02 04:18:00,31.8,16.6,30.26,North,10,0.0,5.0,53,0.00,,---,0.00,VWS V14.01,2013-04-02 09:18:00,
2013-04-02 04:23:00,31.8,17.1,30.27,NNW,347,0.0,5.0,54,0.00,,---,0.00,VWS V14.01,2013-04-02 09:23:00,
2013-04-02 04:28:00,31.8,17.1,30.27,NNE,26,0.0,5.0,54,0.00,,---,0.00,VWS V14.01,2013-04-02 09:28:00,
2013-04-02 04:30:00,30.4,16.6,30.28,NE,36,0.0,1.0,56,0.00,,---,0.00,VWS V14.01,2013-04-02 09:30:00,
2013-04-02 04:33:00,31.8,17.1,30.27,North,10,0.0,5.0,54,0.00,,---,0.00,VWS V14.01,2013-04-02 09:33:00,
2013-04-02 04:38:00,31.6,16.9,30.27,North,9,0.0,0.0,54,0.00,,---,0.00,VWS V14.01,2013-04-02 09:38:00,
2013-04-02 04:43:00,31.6,16.9,30.27,NNE,15,0.0,2.0,54,0.00,,---,0.00,VWS V14.01,2013-04-02 09:43:00,
2013-04-02 04:48:00,31.6,16.9,30.27,NNE,17,0.0,2.0,54,0.00,,---,0.00,VWS V14.01,2013-04-02 09:48:00,
2013-04-02 04:53:00,31.6,16.9,30.27,NE,45,0.0,2.0,54,0.00,,---,0.00,VWS V14.01,2013-04-02 09:53:00,
2013-04-02 04:58:00,31.5,16.4,30.27,NNE,25,0.0,2.0,53,0.00,,---,0.00,VWS V14.01,2013-04-02 09:58:00,
2013-04-02 05:00:00,30.1,16.7,30.29,NE,45,0.0,1.0,57,0.00,,---,0.00,VWS V14.01,2013-04-02 10:00:00,
2013-04-02 05:03:00,31.3,17.0,30.27,NE,38,0.0,2.0,55,0.00,,---,0.00,VWS V14.01,2013-04-02 10:03:00,
2013-04-02 05:08:00,31.3,17.0,30.27,NNE,17,0.0,1.0,55,0.00,,---,0.00,VWS V14.01,2013-04-02 10:08:00,
2013-04-02 05:13:00,31.2,16.5,30.27,NE,34,0.0,1.0,54,0.00,,---,0.00,VWS V14.01,2013-04-02 10:13:00,
2013-04-02 05:18:00,31.0,16.7,30.27,NE,49,0.0,1.0,55,0.00,,---,0.00,VWS V14.01,2013-04-02 10:18:00,
2013-04-02 05:23:00,30.7,16.5,30.27,ENE,75,0.0,1.0,55,0.00,,---,0.00,VWS V14.01,2013-04-02 10:23:00,
2013-04-02 05:28:00,30.6,16.8,30.27,ENE,61,0.0,1.0,56,0.00,,---,0.00,VWS V14.01,2013-04-02 10:28:00,
2013-04-02 05:30:00,29.7,16.8,30.29,ENE,59,0.0,3.0,58,0.00,,---,0.00,VWS V14.01,2013-04-02 10:30:00,
2013-04-02 05:33:00,30.4,16.6,30.27,NE,44,0.0,1.0,56,0.00,,---,0.00,VWS V14.01,2013-04-02 10:33:00,
2013-04-02 05:38:00,30.3,16.5,30.28,East,101,0.0,0.0,56,0.00,,---,0.00,VWS V14.01,2013-04-02 10:38:00,
2013-04-02 05:43:00,30.1,16.7,30.28,ESE,115,0.0,0.0,57,0.00,,---,0.00,VWS V14.01,2013-04-02 10:43:00,
2013-04-02 05:48:00,30.1,17.1,30.28,ESE,119,0.0,1.0,58,0.00,,---,0.00,VWS V14.01,2013-04-02 10:48:00,
2013-04-02 05:53:00,30.3,17.3,30.29,East,88,0.0,1.0,58,0.00,,---,0.00,VWS V14.01,2013-04-02 10:53:00,
2013-04-02 05:58:00,30.3,16.9,30.29,NE,40,0.0,1.0,57,0.00,,---,0.00,VWS V14.01,2013-04-02 10:58:00,
2013-04-02 06:00:00,30.1,17.1,30.30,ENE,78,0.0,2.0,58,0.00,,---,0.00,VWS V14.01,2013-04-02 11:00:00,
2013-04-02 06:03:00,30.1,16.7,30.29,NE,55,0.0,1.0,57,0.00,,---,0.00,VWS V14.01,2013-04-02 11:03:00,
2013-04-02 06:08:00,30.1,16.7,30.29,NE,36,0.0,3.0,57,0.00,,---,0.00,VWS V14.01,2013-04-02 11:08:00,
2013-04-02 06:13:00,30.0,16.6,30.29,ENE,59,0.0,3.0,57,0.00,,---,0.00,VWS V14.01,2013-04-02 11:13:00,
2013-04-02 06:18:00,29.8,16.4,30.29,NE,53,0.0,3.0,57,0.00,,---,0.00,VWS V14.01,2013-04-02 11:18:00,
2013-04-02 06:23:00,29.7,16.8,30.30,NNE,32,0.0,3.0,58,0.00,,---,0.00,VWS V14.01,2013-04-02 11:23:00,
2013-04-02 06:28:00,29.8,16.8,30.30,East,82,0.0,3.0,58,0.00,,---,0.00,VWS V14.01,2013-04-02 11:28:00,
2013-04-02 06:30:00,30.3,17.7,30.31,ENE,59,0.0,2.0,59,0.00,,---,0.00,VWS V14.01,2013-04-02 11:30:00,
2013-04-02 06:33:00,29.7,16.8,30.30,NE,48,0.0,3.0,58,0.00,,---,0.00,VWS V14.01,2013-04-02 11:33:00,
2013-04-02 06:38:00,29.8,16.8,30.29,ENE,57,0.0,1.0,58,0.00,,---,0.00,VWS V14.01,2013-04-02 11:38:00,
2013-04-02 06:43:00,29.7,16.8,30.29,ENE,59,0.0,1.0,58,0.00,,---,0.00,VWS V14.01,2013-04-02 11:43:00,
2013-04-02 06:48:00,29.7,16.8,30.29,NE,44,1.0,1.0,58,0.00,,---,0.00,VWS V14.01,2013-04-02 11:48:00,
2013-04-02 06:53:00,29.5,16.6,30.30,NNE,15,0.0,2.0,58,0.00,,---,0.00,VWS V14.01,2013-04-02 11:53:00,
2013-04-02 06:58:00,29.7,17.1,30.30,North,11,0.0,2.0,59,0.00,,---,0.00,VWS V14.01,2013-04-02 11:58:00,
2013-04-02 07:00:00,32.4,18.5,30.31,East,82,0.0,2.0,56,0.00,,---,0.00,VWS V14.01,2013-04-02 12:00:00,
2013-04-02 07:03:00,30.1,17.1,30.30,NNE,30,0.0,2.0,58,0.00,,---,0.00,VWS V14.01,2013-04-02 12:03:00,
2013-04-02 07:08:00,30.1,16.7,30.30,East,83,0.0,0.0,57,0.00,,---,0.00,VWS V14.01,2013-04-02 12:08:00,
2013-04-02 07:13:00,30.0,17.0,30.30,East,79,0.0,2.0,58,0.00,,---,0.00,VWS V14.01,2013-04-02 12:13:00,
2013-04-02 07:18:00,29.8,16.8,30.30,NE,53,0.0,2.0,58,0.00,,---,0.00,VWS V14.01,2013-04-02 12:18:00,
2013-04-02 07:23:00,29.8,16.8,30.31,ENE,69,0.0,2.0,58,0.00,,---,0.00,VWS V14.01,2013-04-02 12:23:00,
2013-04-02 07:28:00,30.0,17.0,30.31,NE,53,0.0,2.0,58,0.00,,---,0.00,VWS V14.01,2013-04-02 12:28:00,
2013-04-02 07:30:00,33.4,18.1,30.32,SE,132,1.0,4.0,53,0.00,,---,0.00,VWS V14.01,2013-04-02 12:30:00,
2013-04-02 07:33:00,30.1,17.5,30.31,ENE,78,0.0,2.0,59,0.00,,---,0.00,VWS V14.01,2013-04-02 12:33:00,
2013-04-02 07:38:00,30.4,17.4,30.31,ENE,67,0.0,1.0,58,0.00,,---,0.00,VWS V14.01,2013-04-02 12:38:00,
2013-04-02 07:43:00,30.7,17.7,30.31,East,96,0.0,1.0,58,0.00,,---,0.00,VWS V14.01,2013-04-02 12:43:00,
2013-04-02 07:48:00,30.9,17.9,30.31,East,90,0.0,1.0,58,0.00,,---,0.00,VWS V14.01,2013-04-02 12:48:00,
2013-04-02 07:53:00,31.2,17.8,30.31,East,92,0.0,1.0,57,0.00,,---,0.00,VWS V14.01,2013-04-02 12:53:00,
2013-04-02 07:58:00,31.8,17.9,30.31,East,89,0.0,1.0,56,0.00,,---,0.00,VWS V14.01,2013-04-02 12:58:00,
2013-04-02 08:00:00,34.6,18.8,30.33,East,84,0.0,9.0,52,0.00,,---,0.00,VWS V14.01,2013-04-02 13:00:00,
2013-04-02 08:03:00,32.1,18.2,30.31,East,86,1.0,2.0,56,0.00,,---,0.00,VWS V14.01,2013-04-02 13:03:00,
2013-04-02 08:08:00,32.5,18.1,30.31,NE,51,0.0,2.0,55,0.00,,---,0.00,VWS V14.01,2013-04-02 13:08:00,
2013-04-02 08:13:00,32.7,18.3,30.31,East,88,0.0,2.0,55,0.00,,---,0.00,VWS V14.01,2013-04-02 13:13:00,
2013-04-02 08:18:00,32.7,17.9,30.31,ENE,71,0.0,4.0,54,0.00,,---,0.00,VWS V14.01,2013-04-02 13:18:00,
2013-04-02 08:23:00,32.9,18.1,30.31,East,82,0.0,4.0,54,0.00,,---,0.00,VWS V14.01,2013-04-02 13:23:00,
2013-04-02 08:27:00,33.1,17.8,30.31,ESE,105,1.0,4.0,53,0.00,,---,0.00,VWS V14.01,2013-04-02 13:27:00,
2013-04-02 08:30:00,37.8,18.9,30.32,ESE,102,1.0,10.0,46,0.00,,---,0.00,VWS V14.01,2013-04-02 13:30:00,
2013-04-02 08:33:00,33.2,18.4,30.31,ESE,103,2.0,4.0,54,0.00,,---,0.00,VWS V14.01,2013-04-02 13:33:00,
2013-04-02 08:38:00,33.5,18.2,30.32,East,84,4.0,6.0,53,0.00,,---,0.00,VWS V14.01,2013-04-02 13:38:00,
2013-04-02 08:42:00,33.7,18.4,30.32,ESE,103,4.0,6.0,53,0.00,,---,0.00,VWS V14.01,2013-04-02 13:42:00,
2013-04-02 08:47:00,34.0,18.7,30.32,East,85,2.0,6.0,53,0.00,,---,0.00,VWS V14.01,2013-04-02 13:47:00,
2013-04-02 08:52:00,34.1,18.8,30.33,ENE,66,4.0,6.0,53,0.00,,---,0.00,VWS V14.01,2013-04-02 13:52:00,
2013-04-02 08:57:00,34.3,19.0,30.33,East,85,1.0,9.0,53,0.00,,---,0.00,VWS V14.01,2013-04-02 13:57:00,
2013-04-02 09:00:00,40.6,18.2,30.32,ENE,67,4.0,9.0,40,0.00,,---,0.00,VWS V14.01,2013-04-02 14:00:00,
2013-04-02 09:02:00,34.4,18.6,30.33,East,83,2.0,9.0,52,0.00,,---,0.00,VWS V14.01,2013-04-02 14:02:00,
2013-04-02 09:07:00,34.9,19.1,30.33,East,94,4.0,5.0,52,0.00,,---,0.00,VWS V14.01,2013-04-02 14:07:00,
2013-04-02 09:12:00,35.3,19.0,30.33,ENE,67,0.0,7.0,51,0.00,,---,0.00,VWS V14.01,2013-04-02 14:12:00,
2013-04-02 09:17:00,35.8,19.0,30.33,SE,136,0.0,7.0,50,0.00,,---,0.00,VWS V14.01,2013-04-02 14:17:00,
2013-04-02 09:22:00,36.5,19.2,30.33,SE,145,0.0,9.0,49,0.00,,---,0.00,VWS V14.01,2013-04-02 14:22:00,
2013-04-02 09:27:00,37.0,18.7,30.33,East,87,4.0,10.0,47,0.00,,---,0.00,VWS V14.01,2013-04-02 14:27:00,
2013-04-02 09:30:00,41.1,18.0,30.32,NE,36,0.0,11.0,39,0.00,,---,0.00,VWS V14.01,2013-04-02 14:30:00,
2013-04-02 09:32:00,37.6,18.7,30.33,ESE,116,1.0,10.0,46,0.00,,---,0.00,VWS V14.01,2013-04-02 14:32:00,
2013-04-02 09:37:00,38.2,19.3,30.32,NE,43,0.0,6.0,46,0.00,,---,0.00,VWS V14.01,2013-04-02 14:37:00,
2013-04-02 09:42:00,38.8,18.8,30.32,ESE,120,3.0,9.0,44,0.00,,---,0.00,VWS V14.01,2013-04-02 14:42:00,
2013-04-02 09:47:00,39.2,18.0,30.32,ESE,105,3.0,9.0,42,0.00,,---,0.00,VWS V14.01,2013-04-02 14:47:00,
2013-04-02 09:52:00,39.5,18.3,30.32,ESE,110,1.0,9.0,42,0.00,,---,0.00,VWS V14.01,2013-04-02 14:52:00,
2013-04-02 09:57:00,40.1,18.9,30.32,ESE,107,6.0,9.0,42,0.00,,---,0.00,VWS V14.01,2013-04-02 14:57:00,
2013-04-02 10:00:00,42.8,14.3,30.32,ENE,71,4.0,11.0,31,0.00,,---,0.00,VWS V14.01,2013-04-02 15:00:00,
2013-04-02 10:02:00,40.5,18.1,30.32,NE,44,5.0,9.0,40,0.00,,---,0.00,VWS V14.01,2013-04-02 15:02:00,
2013-04-02 10:07:00,40.6,18.2,30.32,NNE,30,3.0,6.0,40,0.00,,---,0.00,VWS V14.01,2013-04-02 15:07:00,
2013-04-02 10:12:00,40.6,17.0,30.32,East,92,1.0,11.0,38,0.00,,---,0.00,VWS V14.01,2013-04-02 15:12:00,
2013-04-02 10:17:00,40.5,16.9,30.32,NNE,32,1.0,11.0,38,0.00,,---,0.00,VWS V14.01,2013-04-02 15:17:00,
2013-04-02 10:22:00,40.5,17.5,30.32,SE,140,1.0,11.0,39,0.00,,---,0.00,VWS V14.01,2013-04-02 15:22:00,
2013-04-02 10:27:00,41.1,18.0,30.32,NNE,27,2.0,11.0,39,0.00,,---,0.00,VWS V14.01,2013-04-02 15:27:00,
2013-04-02 10:30:00,42.9,15.1,30.31,North,360,0.0,12.0,32,0.00,,---,0.00,VWS V14.01,2013-04-02 15:30:00,
2013-04-02 10:32:00,41.1,18.0,30.32,ENE,77,1.0,11.0,39,0.00,,---,0.00,VWS V14.01,2013-04-02 15:32:00,
2013-04-02 10:37:00,41.1,18.0,30.32,SE,128,5.0,5.0,39,0.00,,---,0.00,VWS V14.01,2013-04-02 15:37:00,
2013-04-02 10:42:00,41.5,18.4,30.32,SSE,158,1.0,7.0,39,0.00,,---,0.00,VWS V14.01,2013-04-02 15:42:00,
2013-04-02 10:47:00,42.1,18.3,30.32,NNE,20,4.0,11.0,38,0.00,,---,0.00,VWS V14.01,2013-04-02 15:47:00,
2013-04-02 10:52:00,42.3,17.9,30.32,NE,54,2.0,11.0,37,0.00,,---,0.00,VWS V14.01,2013-04-02 15:52:00,
2013-04-02 10:57:00,42.6,17.5,30.32,East,94,5.0,11.0,36,0.00,,---,0.00,VWS V14.01,2013-04-02 15:57:00,
2013-04-02 11:00:00,44.8,13.7,30.30,ESE,105,4.0,12.0,28,0.00,,---,0.00,VWS V14.01,2013-04-02 16:00:00,
2013-04-02 11:02:00,42.8,15.0,30.32,ENE,68,4.0,11.0,32,0.00,,---,0.00,VWS V14.01,2013-04-02 16:02:00,
2013-04-02 11:07:00,42.6,14.1,30.32,NE,38,8.0,11.0,31,0.00,,---,0.00,VWS V14.01,2013-04-02 16:07:00,
2013-04-02 11:12:00,42.5,14.0,30.32,ENE,57,7.0,11.0,31,0.00,,---,0.00,VWS V14.01,2013-04-02 16:12:00,
2013-04-02 11:17:00,42.3,14.6,30.32,North,5,5.0,12.0,32,0.00,,---,0.00,VWS V14.01,2013-04-02 16:17:00,
2013-04-02 11:22:00,42.2,14.5,30.32,North,5,0.0,12.0,32,0.00,,---,0.00,VWS V14.01,2013-04-02 16:22:00,
2013-04-02 11:27:00,42.2,15.2,30.32,ESE,111,0.0,12.0,33,0.00,,---,0.00,VWS V14.01,2013-04-02 16:27:00,
2013-04-02 11:30:00,46.4,14.2,30.30,NE,44,11.0,13.0,27,0.00,,---,0.00,VWS V14.01,2013-04-02 16:30:00,
2013-04-02 11:33:00,42.8,15.0,30.32,ENE,65,2.0,12.0,32,0.00,,---,0.00,VWS V14.01,2013-04-02 16:33:00,
2013-04-02 11:38:00,43.3,14.7,30.31,North,355,7.0,12.0,31,0.00,,---,0.00,VWS V14.01,2013-04-02 16:38:00,
2013-04-02 11:43:00,43.3,14.7,30.31,ESE,108,7.0,12.0,31,0.00,,---,0.00,VWS V14.01,2013-04-02 16:43:00,
2013-04-02 11:48:00,43.8,15.1,30.31,East,79,0.0,12.0,31,0.00,,---,0.00,VWS V14.01,2013-04-02 16:48:00,
2013-04-02 11:53:00,43.8,13.6,30.31,East,79,0.0,12.0,29,0.00,,---,0.00,VWS V14.01,2013-04-02 16:53:00,
2013-04-02 11:58:00,44.2,14.0,30.31,ESE,109,5.0,12.0,29,0.00,,---,0.00,VWS V14.01,2013-04-02 16:58:00,
2013-04-02 12:00:00,47.4,14.2,30.29,ENE,74,7.0,11.0,26,0.00,,---,0.00,VWS V14.01,2013-04-02 17:00:00,
2013-04-02 12:03:00,44.6,13.5,30.30,East,100,3.0,12.0,28,0.00,,---,0.00,VWS V14.01,2013-04-02 17:03:00,
2013-04-02 12:08:00,45.1,14.0,30.30,East,94,7.0,9.0,28,0.00,,---,0.00,VWS V14.01,2013-04-02 17:08:00,
2013-04-02 12:13:00,45.5,14.3,30.30,NNW,328,1.0,9.0,28,0.00,,---,0.00,VWS V14.01,2013-04-02 17:13:00,
2013-04-02 12:18:00,45.8,14.6,30.30,ENE,69,5.0,10.0,28,0.00,,---,0.00,VWS V14.01,2013-04-02 17:18:00,
2013-04-02 12:23:00,45.8,14.6,30.30,North,360,0.0,10.0,28,0.00,,---,0.00,VWS V14.01,2013-04-02 17:23:00,
2013-04-02 12:28:00,46.0,14.7,30.30,NNE,13,3.0,10.0,28,0.00,,---,0.00,VWS V14.01,2013-04-02 17:28:00,
2013-04-02 12:30:00,46.5,13.5,30.28,NNW,327,1.0,14.0,26,0.00,,---,0.00,VWS V14.01,2013-04-02 17:30:00,
2013-04-02 12:33:00,46.4,14.2,30.30,ENE,61,3.0,10.0,27,0.00,,---,0.00,VWS V14.01,2013-04-02 17:33:00,
2013-04-02 12:38:00,46.2,14.1,30.30,NE,51,6.0,11.0,27,0.00,,---,0.00,VWS V14.01,2013-04-02 17:38:00,
2013-04-02 12:43:00,46.0,13.9,30.30,NE,46,2.0,11.0,27,0.00,,---,0.00,VWS V14.01,2013-04-02 17:43:00,
2013-04-02 12:48:00,46.0,14.7,30.29,ENE,57,1.0,11.0,28,0.00,,---,0.00,VWS V14.01,2013-04-02 17:48:00,
2013-04-02 12:53:00,46.4,15.1,30.29,ESE,110,1.0,11.0,28,0.00,,---,0.00,VWS V14.01,2013-04-02 17:53:00,
2013-04-02 12:58:00,46.8,14.6,30.29,SE,124,2.0,11.0,27,0.00,,---,0.00,VWS V14.01,2013-04-02 17:58:00,
2013-04-02 13:00:00,48.8,15.4,30.27,NE,34,6.0,14.0,26,0.00,,---,0.00,VWS V14.01,2013-04-02 18:00:00,
2013-04-02 13:03:00,47.3,14.2,30.29,NNE,20,7.0,11.0,26,0.00,,---,0.00,VWS V14.01,2013-04-02 18:03:00,
2013-04-02 13:08:00,47.1,14.0,30.29,East,81,3.0,11.0,26,0.00,,---,0.00,VWS V14.01,2013-04-02 18:08:00,
2013-04-02 13:13:00,46.8,13.7,30.29,ENE,77,1.0,11.0,26,0.00,,---,0.00,VWS V14.01,2013-04-02 18:13:00,
2013-04-02 13:18:00,46.8,14.6,30.29,East,88,3.0,11.0,27,0.00,,---,0.00,VWS V14.01,2013-04-02 18:18:00,
2013-04-02 13:23:00,46.7,14.5,30.29,North,351,3.0,14.0,27,0.00,,---,0.00,VWS V14.01,2013-04-02 18:23:00,
2013-04-02 13:28:00,46.4,13.4,30.29,East,84,2.0,14.0,26,0.00,,---,0.00,VWS V14.01,2013-04-02 18:28:00,
2013-04-02 13:30:00,49.8,15.4,30.26,East,84,6.0,13.0,25,0.00,,---,0.00,VWS V14.01,2013-04-02 18:30:00,
2013-04-02 13:33:00,46.5,13.5,30.28,West,273,0.0,14.0,26,0.00,,---,0.00,VWS V14.01,2013-04-02 18:33:00,
2013-04-02 13:38:00,46.7,14.5,30.28,NW,313,0.0,5.0,27,0.00,,---,0.00,VWS V14.01,2013-04-02 18:38:00,
2013-04-02 13:43:00,47.0,13.9,30.28,NE,50,0.0,14.0,26,0.00,,---,0.00,VWS V14.01,2013-04-02 18:43:00,
2013-04-02 13:48:00,47.1,14.0,30.27,NE,38,0.0,14.0,26,0.00,,---,0.00,VWS V14.01,2013-04-02 18:48:00,
2013-04-02 13:53:00,47.7,15.4,30.27,SE,126,0.0,14.0,27,0.00,,---,0.00,VWS V14.01,2013-04-02 18:53:00,
2013-04-02 13:58:00,48.0,14.8,30.27,NE,47,3.0,14.0,26,0.00,,---,0.00,VWS V14.01,2013-04-02 18:58:00,
2013-04-02 14:00:00,50.1,16.6,30.25,North,355,3.0,12.0,26,0.00,,---,0.00,VWS V14.01,2013-04-02 19:00:00,
2013-04-02 14:03:00,48.6,15.3,30.27,North,5,3.0,14.0,26,0.00,,---,0.00,VWS V14.01,2013-04-02 19:03:00,
2013-04-02 14:08:00,48.9,14.6,30.27,East,97,0.0,12.0,25,0.00,,---,0.00,VWS V14.01,2013-04-02 19:08:00,
2013-04-02 14:13:00,49.1,14.8,30.27,NE,55,5.0,12.0,25,0.00,,---,0.00,VWS V14.01,2013-04-02 19:13:00,
2013-04-02 14:18:00,49.5,15.1,30.27,ENE,78,10.0,13.0,25,0.00,,---,0.00,VWS V14.01,2013-04-02 19:18:00,
2013-04-02 14:23:00,49.6,15.2,30.27,ESE,109,1.0,13.0,25,0.00,,---,0.00,VWS V14.01,2013-04-02 19:23:00,
2013-04-02 14:28:00,49.8,15.4,30.27,South,170,2.0,13.0,25,0.00,,---,0.00,VWS V14.01,2013-04-02 19:28:00,
2013-04-02 14:30:00,51.4,16.8,30.24,East,82,0.0,10.0,25,0.00,,---,0.00,VWS V14.01,2013-04-02 19:30:00,
2013-04-02 14:33:00,49.8,15.4,30.26,ENE,60,3.0,13.0,25,0.00,,---,0.00,VWS V14.01,2013-04-02 19:33:00,
2013-04-02 14:38:00,49.9,16.4,30.26,ESE,117,2.0,7.0,26,0.00,,---,0.00,VWS V14.01,2013-04-02 19:38:00,
2013-04-02 14:43:00,50.4,15.0,30.26,East,91,0.0,10.0,24,0.00,,---,0.00,VWS V14.01,2013-04-02 19:43:00,
2013-04-02 14:48:00,50.8,15.3,30.25,ENE,74,6.0,10.0,24,0.00,,---,0.00,VWS V14.01,2013-04-02 19:48:00,
2013-04-02 14:53:00,50.7,16.2,30.25,SE,132,1.0,10.0,25,0.00,,---,0.00,VWS V14.01,2013-04-02 19:53:00,
2013-04-02 14:58:00,50.4,15.9,30.25,ESE,106,0.0,12.0,25,0.00,,---,0.00,VWS V14.01,2013-04-02 19:58:00,
2013-04-02 15:00:00,50.5,16.9,30.24,NNE,32,9.0,12.0,26,0.00,,---,0.00,VWS V14.01,2013-04-02 20:00:00,
2013-04-02 15:03:00,50.1,15.7,30.25,NNE,18,7.0,12.0,25,0.00,,---,0.00,VWS V14.01,2013-04-02 20:03:00,
2013-04-02 15:08:00,50.1,16.6,30.25,NW,315,0.0,10.0,26,0.00,,---,0.00,VWS V14.01,2013-04-02 20:08:00,
2013-04-02 15:14:00,50.4,16.8,30.25,ENE,74,2.0,10.0,26,0.00,,---,0.00,VWS V14.01,2013-04-02 20:14:00,
2013-04-02 15:19:00,50.4,15.9,30.25,SE,126,1.0,10.0,25,0.00,,---,0.00,VWS V14.01,2013-04-02 20:19:00,
2013-04-02 15:24:00,50.7,16.2,30.25,East,99,0.0,10.0,25,0.00,,---,0.00,VWS V14.01,2013-04-02 20:24:00,
2013-04-02 15:29:00,51.1,16.5,30.25,South,169,2.0,10.0,25,0.00,,---,0.00,VWS V14.01,2013-04-02 20:29:00,
2013-04-02 15:30:00,51.3,17.6,30.23,ENE,62,8.0,12.0,26,0.00,,---,0.00,VWS V14.01,2013-04-02 20:30:00,
2013-04-02 15:34:00,51.4,16.8,30.24,ENE,76,2.0,10.0,25,0.00,,---,0.00,VWS V14.01,2013-04-02 20:34:00,
2013-04-02 15:39:00,51.4,15.8,30.24,NNE,22,3.0,10.0,24,0.00,,---,0.00,VWS V14.01,2013-04-02 20:39:00,
2013-04-02 15:44:00,51.4,15.8,30.24,ENE,70,5.0,11.0,24,0.00,,---,0.00,VWS V14.01,2013-04-02 20:44:00,
2013-04-02 15:49:00,51.4,15.8,30.24,East,85,0.0,11.0,24,0.00,,---,0.00,VWS V14.01,2013-04-02 20:49:00,
2013-04-02 15:54:00,51.1,16.5,30.24,NNW,338,1.0,12.0,25,0.00,,---,0.00,VWS V14.01,2013-04-02 20:54:00,
2013-04-02 15:59:00,50.8,16.3,30.24,ENE,65,4.0,12.0,25,0.00,,---,0.00,VWS V14.01,2013-04-02 20:59:00,
2013-04-02 16:00:00,51.3,17.6,30.22,East,101,4.0,11.0,26,0.00,,---,0.00,VWS V14.01,2013-04-02 21:00:00,
2013-04-02 16:04:00,50.5,16.9,30.24,NNE,22,10.0,12.0,26,0.00,,---,0.00,VWS V14.01,2013-04-02 21:04:00,
2013-04-02 16:09:00,50.5,16.0,30.24,NNW,348,3.0,11.0,25,0.00,,---,0.00,VWS V14.01,2013-04-02 21:09:00,
2013-04-02 16:14:00,50.7,16.2,30.24,NNE,21,1.0,12.0,25,0.00,,---,0.00,VWS V14.01,2013-04-02 21:14:00,
2013-04-02 16:19:00,50.7,16.2,30.24,ENE,70,2.0,12.0,25,0.00,,---,0.00,VWS V14.01,2013-04-02 21:19:00,
2013-04-02 16:24:00,50.8,17.2,30.24,North,355,1.0,12.0,26,0.00,,---,0.00,VWS V14.01,2013-04-02 21:24:00,
2013-04-02 16:29:00,51.0,16.4,30.24,NW,313,0.0,12.0,25,0.00,,---,0.00,VWS V14.01,2013-04-02 21:29:00,
2013-04-02 16:30:00,51.3,17.6,30.22,WNW,302,0.0,13.0,26,0.00,,---,0.00,VWS V14.01,2013-04-02 21:30:00,
2013-04-02 16:34:00,51.3,17.6,30.23,ENE,67,9.0,9.0,26,0.00,,---,0.00,VWS V14.01,2013-04-02 21:34:00,
2013-04-02 16:39:00,51.4,16.8,30.23,ENE,74,1.0,9.0,25,0.00,,---,0.00,VWS V14.01,2013-04-02 21:39:00,
2013-04-02 16:44:00,51.3,16.7,30.23,ENE,74,0.0,9.0,25,0.00,,---,0.00,VWS V14.01,2013-04-02 21:44:00,
2013-04-02 16:49:00,51.3,16.7,30.23,SE,138,3.0,11.0,25,0.00,,---,0.00,VWS V14.01,2013-04-02 21:49:00,
2013-04-02 16:54:00,51.3,17.6,30.23,NE,53,5.0,11.0,26,0.00,,---,0.00,VWS V14.01,2013-04-02 21:54:00,
2013-04-02 16:59:00,51.3,17.6,30.23,East,92,1.0,11.0,26,0.00,,---,0.00,VWS V14.01,2013-04-02 21:59:00,
2013-04-02 17:00:00,50.8,17.2,30.22,ENE,68,7.0,8.0,26,0.00,,---,0.00,VWS V14.01,2013-04-02 22:00:00,
2013-04-02 17:04:00,51.3,17.6,30.22,SE,126,7.0,7.0,26,0.00,,---,0.00,VWS V14.01,2013-04-02 22:04:00,
2013-04-02 17:09:00,51.1,17.4,30.22,NNW,345,6.0,11.0,26,0.00,,---,0.00,VWS V14.01,2013-04-02 22:09:00,
2013-04-02 17:14:00,51.0,17.3,30.22,North,349,1.0,12.0,26,0.00,,---,0.00,VWS V14.01,2013-04-02 22:14:00,
2013-04-02 17:19:00,51.1,17.4,30.23,ENE,74,1.0,12.0,26,0.00,,---,0.00,VWS V14.01,2013-04-02 22:19:00,
2013-04-02 17:24:00,51.1,17.4,30.23,NNE,14,2.0,13.0,26,0.00,,---,0.00,VWS V14.01,2013-04-02 22:24:00,
2013-04-02 17:29:00,51.1,17.4,30.23,ENE,76,1.0,13.0,26,0.00,,---,0.00,VWS V14.01,2013-04-02 22:29:00,
2013-04-02 17:30:00,49.8,18.0,30.24,NNE,15,5.0,11.0,28,0.00,,---,0.00,VWS V14.01,2013-04-02 22:30:00,
2013-04-02 17:34:00,51.3,17.6,30.22,WNW,292,0.0,1.0,26,0.00,,---,0.00,VWS V14.01,2013-04-02 22:34:00,
2013-04-02 17:39:00,51.6,17.9,30.22,NE,49,0.0,3.0,26,0.00,,---,0.00,VWS V14.01,2013-04-02 22:39:00,
2013-04-02 17:44:00,51.6,17.9,30.22,NE,53,7.0,7.0,26,0.00,,---,0.00,VWS V14.01,2013-04-02 22:44:00,
2013-04-02 17:49:00,51.3,17.6,30.22,East,92,6.0,8.0,26,0.00,,---,0.00,VWS V14.01,2013-04-02 22:49:00,
2013-04-02 17:54:00,51.1,17.4,30.22,ENE,61,2.0,8.0,26,0.00,,---,0.00,VWS V14.01,2013-04-02 22:54:00,
2013-04-02 17:59:00,51.0,17.3,30.22,East,94,1.0,8.0,26,0.00,,---,0.00,VWS V14.01,2013-04-02 22:59:00,
2013-04-02 18:00:00,48.9,17.2,30.24,NNE,13,1.0,10.0,28,0.00,,---,0.00,VWS V14.01,2013-04-02 23:00:00,
2013-04-02 18:04:00,50.8,17.2,30.22,ENE,70,7.0,7.0,26,0.00,,---,0.00,VWS V14.01,2013-04-02 23:04:00,
2013-04-02 18:09:00,50.7,17.1,30.22,East,98,3.0,9.0,26,0.00,,---,0.00,VWS V14.01,2013-04-02 23:09:00,
2013-04-02 18:14:00,50.4,16.8,30.22,East,89,4.0,9.0,26,0.00,,---,0.00,VWS V14.01,2013-04-02 23:14:00,
2013-04-02 18:19:00,50.4,16.8,30.23,East,79,5.0,9.0,26,0.00,,---,0.00,VWS V14.01,2013-04-02 23:19:00,
2013-04-02 18:24:00,50.2,17.5,30.23,ENE,61,8.0,9.0,27,0.00,,---,0.00,VWS V14.01,2013-04-02 23:24:00,
2013-04-02 18:29:00,49.9,18.1,30.23,ENE,70,9.0,11.0,28,0.00,,---,0.00,VWS V14.01,2013-04-02 23:29:00,
2013-04-02 18:30:00,48.0,18.8,30.23,NE,44,0.0,8.0,31,0.00,,---,0.00,VWS V14.01,2013-04-02 23:30:00,
2013-04-02 18:34:00,49.8,18.0,30.24,NE,34,4.0,6.0,28,0.00,,---,0.00,VWS V14.01,2013-04-02 23:34:00,
2013-04-02 18:39:00,49.5,16.9,30.24,NE,52,4.0,10.0,27,0.00,,---,0.00,VWS V14.01,2013-04-02 23:39:00,
2013-04-02 18:44:00,49.2,17.5,30.24,NE,50,1.0,10.0,28,0.00,,---,0.00,VWS V14.01,2013-04-02 23:44:00,
2013-04-02 18:49:00,49.2,17.5,30.24,NE,53,1.0,10.0,28,0.00,,---,0.00,VWS V14.01,2013-04-02 23:49:00,
2013-04-02 18:54:00,49.2,17.5,30.24,NNE,18,5.0,10.0,28,0.00,,---,0.00,VWS V14.01,2013-04-02 23:54:00,
2013-04-02 18:59:00,49.1,17.4,30.24,NE,42,1.0,10.0,28,0.00,,---,0.00,VWS V14.01,2013-04-02 23:59:00,
2013-04-02 19:00:00,46.5,19.7,30.23,NE,50,0.0,2.0,34,0.00,,---,0.00,VWS V14.01,2013-04-03 00:00:00,
2013-04-02 19:04:00,48.9,17.2,30.24,NE,35,2.0,2.0,28,0.00,,---,0.00,VWS V14.01,2013-04-03 00:04:00,
2013-04-02 19:09:00,48.8,17.2,30.24,NE,47,4.0,8.0,28,0.00,,---,0.00,VWS V14.01,2013-04-03 00:09:00,
2013-04-02 19:14:00,48.5,17.7,30.24,North,355,0.0,8.0,29,0.00,,---,0.00,VWS V14.01,2013-04-03 00:14:00,
2013-04-02 19:19:00,48.3,18.3,30.23,NE,46,1.0,8.0,30,0.00,,---,0.00,VWS V14.01,2013-04-03 00:19:00,
2013-04-02 19:24:00,48.2,18.2,30.23,North,9,0.0,8.0,30,0.00,,---,0.00,VWS V14.01,2013-04-03 00:24:00,
2013-04-02 19:29:00,48.2,19.0,30.23,NNE,22,5.0,8.0,31,0.00,,---,0.00,VWS V14.01,2013-04-03 00:29:00,
2013-04-02 19:30:00,45.7,20.3,30.24,ENE,77,0.0,6.0,36,0.00,,---,0.00,VWS V14.01,2013-04-03 00:30:00,
2013-04-02 19:34:00,47.9,18.7,30.23,NNE,32,0.0,1.0,31,0.00,,---,0.00,VWS V14.01,2013-04-03 00:34:00,
2013-04-02 19:39:00,47.7,18.6,30.23,ENE,63,0.0,2.0,31,0.00,,---,0.00,VWS V14.01,2013-04-03 00:39:00,
2013-04-02 19:44:00,47.4,19.0,30.23,NE,46,0.0,2.0,32,0.00,,---,0.00,VWS V14.01,2013-04-03 00:44:00,
2013-04-02 19:49:00,47.3,19.7,30.23,NE,45,1.0,2.0,33,0.00,,---,0.00,VWS V14.01,2013-04-03 00:49:00,
2013-04-02 19:55:00,47.0,19.4,30.23,ENE,58,0.0,2.0,33,0.00,,---,0.00,VWS V14.01,2013-04-03 00:55:00,
2013-04-02 20:00:00,46.7,19.8,30.23,NNE,30,1.0,2.0,34,0.00,,---,0.00,VWS V14.01,2013-04-03 01:00:00,
2013-04-02 20:05:00,46.5,19.7,30.23,NE,51,0.0,0.0,34,0.00,,---,0.00,VWS V14.01,2013-04-03 01:05:00,
2013-04-02 20:10:00,46.2,20.1,30.23,ENE,63,2.0,3.0,35,0.00,,---,0.00,VWS V14.01,2013-04-03 01:10:00,
2013-04-02 20:15:00,46.1,20.0,30.23,East,79,1.0,3.0,35,0.00,,---,0.00,VWS V14.01,2013-04-03 01:15:00,
2013-04-02 20:20:00,46.0,19.9,30.23,East,96,0.0,6.0,35,0.00,,---,0.00,VWS V14.01,2013-04-03 01:20:00,
2013-04-02 20:25:00,46.0,20.6,30.23,ENE,67,0.0,6.0,36,0.00,,---,0.00,VWS V14.01,2013-04-03 01:25:00,
2013-04-02 20:30:00,45.8,19.7,30.23,ENE,57,1.0,6.0,35,0.00,,---,0.00,VWS V14.01,2013-04-03 01:30:00,
2013-04-02 20:35:00,45.7,20.3,30.24,ENE,66,0.0,0.0,36,0.00,,---,0.00,VWS V14.01,2013-04-03 01:35:00,
2013-04-02 20:40:00,45.5,20.1,30.24,East,93,0.0,2.0,36,0.00,,---,0.00,VWS V14.01,2013-04-03 01:40:00,
2013-04-02 20:45:00,45.5,20.1,30.24,ENE,78,0.0,2.0,36,0.00,,---,0.00,VWS V14.01,2013-04-03 01:45:00,
2013-04-02 20:50:00,45.5,20.8,30.24,East,94,0.0,2.0,37,0.00,,---,0.00,VWS V14.01,2013-04-03 01:50:00,
2013-04-02 20:55:00,45.4,20.7,30.24,East,80,1.0,2.0,37,0.00,,---,0.00,VWS V14.01,2013-04-03 01:55:00,
2013-04-02 21:00:00,45.2,20.5,30.24,ENE,62,0.0,2.0,37,0.00,,---,0.00,VWS V14.01,2013-04-03 02:00:00,
2013-04-02 21:05:00,45.1,20.4,30.25,ENE,78,1.0,3.0,37,0.00,,---,0.00,VWS V14.01,2013-04-03 02:05:00,
2013-04-02 21:10:00,44.9,22.1,30.25,East,89,0.0,3.0,40,0.00,,---,0.00,VWS V14.01,2013-04-03 02:10:00,
2013-04-02 21:15:00,44.8,20.8,30.25,East,83,0.0,3.0,38,0.00,,---,0.00,VWS V14.01,2013-04-03 02:15:00,
2013-04-02 21:20:00,44.6,20.6,30.25,ENE,63,2.0,3.0,38,0.00,,---,0.00,VWS V14.01,2013-04-03 02:20:00,
2013-04-02 21:25:00,44.2,20.8,30.25,ENE,58,0.0,4.0,39,0.00,,---,0.00,VWS V14.01,2013-04-03 02:25:00,
2013-04-02 21:30:00,44.1,20.7,30.25,East,83,0.0,4.0,39,0.00,,---,0.00,VWS V14.01,2013-04-03 02:30:00,
2013-04-02 21:35:00,43.9,20.6,30.25,NE,55,0.0,1.0,39,0.00,,---,0.00,VWS V14.01,2013-04-03 02:35:00,
2013-04-02 21:40:00,43.8,20.5,30.25,East,85,0.0,4.0,39,0.00,,---,0.00,VWS V14.01,2013-04-03 02:40:00,
2013-04-02 21:45:00,43.8,20.5,30.25,East,82,0.0,4.0,39,0.00,,---,0.00,VWS V14.01,2013-04-03 02:45:00,
2013-04-02 21:50:00,43.6,20.3,30.25,NE,53,0.0,6.0,39,0.00,,---,0.00,VWS V14.01,2013-04-03 02:50:00,
2013-04-02 21:55:00,43.5,20.8,30.25,ENE,58,1.0,6.0,40,0.00,,---,0.00,VWS V14.01,2013-04-03 02:55:00,
2013-04-02 21:56:00,42.5,19.9,30.25,NNE,29,0.0,3.0,40,0.00,,---,0.00,VWS V14.01,2013-04-03 02:56:00,
2013-04-02 21:57:00,42.5,20.5,30.25,East,92,0.0,3.0,41,0.00,,---,0.00,VWS V14.01,2013-04-03 02:57:00,
2013-04-02 21:58:00,42.5,20.5,30.25,ENE,60,1.0,3.0,41,0.00,,---,0.00,VWS V14.01,2013-04-03 02:58:00,
2013-04-02 21:59:00,42.5,20.5,30.25,ENE,73,0.0,3.0,41,0.00,,---,0.00,VWS V14.01,2013-04-03 02:59:00,
2013-04-02 22:00:00,43.3,20.6,30.25,NE,40,0.0,6.0,40,0.00,,---,0.00,VWS V14.01,2013-04-03 03:00:00,
2013-04-02 22:05:00,43.2,20.5,30.25,ENE,67,0.0,3.0,40,0.00,,---,0.00,VWS V14.01,2013-04-03 03:05:00,
2013-04-02 22:10:00,43.1,20.4,30.25,ENE,59,0.0,4.0,40,0.00,,---,0.00,VWS V14.01,2013-04-03 03:10:00,
2013-04-02 22:15:00,42.9,20.3,30.25,ENE,76,0.0,4.0,40,0.00,,---,0.00,VWS V14.01,2013-04-03 03:15:00,
2013-04-02 22:20:00,42.8,20.2,30.25,East,88,0.0,4.0,40,0.00,,---,0.00,VWS V14.01,2013-04-03 03:20:00,
2013-04-02 22:25:00,42.6,20.6,30.25,ENE,59,0.0,4.0,41,0.00,,---,0.00,VWS V14.01,2013-04-03 03:25:00,
2013-04-02 22:30:00,42.6,20.6,30.25,NE,46,0.0,4.0,41,0.00,,---,0.00,VWS V14.01,2013-04-03 03:30:00,
2013-04-02 22:35:00,42.6,20.0,30.25,ENE,76,1.0,2.0,40,0.00,,---,0.00,VWS V14.01,2013-04-03 03:35:00,
2013-04-02 22:40:00,42.6,20.0,30.25,ENE,57,0.0,2.0,40,0.00,,---,0.00,VWS V14.01,2013-04-03 03:40:00,
2013-04-02 22:45:00,42.6,20.0,30.25,NE,53,0.0,3.0,40,0.00,,---,0.00,VWS V14.01,2013-04-03 03:45:00,
2013-04-02 22:50:00,42.6,20.6,30.25,ENE,69,0.0,3.0,41,0.00,,---,0.00,VWS V14.01,2013-04-03 03:50:00,
2013-04-02 22:55:00,42.6,20.0,30.25,NE,45,0.0,3.0,40,0.00,,---,0.00,VWS V14.01,2013-04-03 03:55:00,
2013-04-02 23:00:00,41.3,20.5,30.25,ENE,72,3.0,4.0,43,0.00,,---,0.00,VWS V14.01,2013-04-03 04:00:00,
2013-04-02 23:03:00,42.5,20.5,30.25,ENE,57,0.0,3.0,41,0.00,,---,0.00,VWS V14.01,2013-04-03 04:03:00,
2013-04-02 23:08:00,42.3,20.3,30.25,ENE,57,0.0,4.0,41,0.00,,---,0.00,VWS V14.01,2013-04-03 04:08:00,
2013-04-02 23:13:00,42.2,20.2,30.25,ENE,67,1.0,4.0,41,0.00,,---,0.00,VWS V14.01,2013-04-03 04:13:00,
2013-04-02 23:18:00,42.2,20.2,30.25,ENE,69,2.0,4.0,41,0.00,,---,0.00,VWS V14.01,2013-04-03 04:18:00,
2013-04-02 23:23:00,42.1,20.7,30.25,NE,52,2.0,9.0,42,0.00,,---,0.00,VWS V14.01,2013-04-03 04:23:00,
2013-04-02 23:28:00,41.9,20.5,30.25,ENE,65,1.0,9.0,42,0.00,,---,0.00,VWS V14.01,2013-04-03 04:28:00,
2013-04-02 23:30:00,41.1,21.4,30.26,ENE,73,0.0,3.0,45,0.00,,---,0.00,VWS V14.01,2013-04-03 04:30:00,
2013-04-02 23:33:00,41.8,20.4,30.25,NE,53,0.0,9.0,42,0.00,,---,0.00,VWS V14.01,2013-04-03 04:33:00,
2013-04-02 23:38:00,41.6,20.2,30.25,NE,44,0.0,2.0,42,0.00,,---,0.00,VWS V14.01,2013-04-03 04:38:00,
2013-04-02 23:43:00,41.5,20.7,30.25,ENE,67,0.0,3.0,43,0.00,,---,0.00,VWS V14.01,2013-04-03 04:43:00,
2013-04-02 23:48:00,41.5,20.7,30.25,ENE,57,0.0,3.0,43,0.00,,---,0.00,VWS V14.01,2013-04-03 04:48:00,
2013-04-02 23:53:00,41.5,20.7,30.25,ENE,59,0.0,3.0,43,0.00,,---,0.00,VWS V14.01,2013-04-03 04:53:00,
2013-04-02 23:58:00,41.3,20.5,30.25,ENE,63,0.0,3.0,43,0.00,,---,0.00,VWS V14.01,2013-04-03 04:58:00,